createdAt,value
2022-10-16T00:01:23.906Z,14.09
2022-10-16T00:03:28.072Z,14.07
2022-10-16T00:05:34.036Z,14.06
2022-10-16T00:07:35.540Z,14.06
2022-10-16T00:09:37.094Z,14.13
2022-10-16T00:11:40.458Z,14.12
2022-10-16T00:13:43.918Z,14.12
2022-10-16T00:15:45.385Z,14.14
2022-10-16T00:17:46.883Z,14.09
2022-10-16T00:19:48.565Z,14.17
2022-10-16T00:21:51.408Z,14.27
2022-10-16T00:23:54.015Z,14.22
2022-10-16T00:25:56.423Z,14.29
2022-10-16T00:27:57.897Z,14.32
2022-10-16T00:32:06.002Z,14.39
2022-10-16T00:34:07.487Z,14.39
2022-10-16T00:36:11.836Z,14.37
2022-10-16T00:38:15.123Z,14.39
2022-10-16T00:40:16.788Z,14.39
2022-10-16T00:42:19.772Z,14.39
2022-10-16T00:44:44.690Z,14.40
2022-10-16T00:46:46.176Z,14.40
2022-10-16T00:48:53.066Z,14.46
2022-10-16T00:50:54.824Z,14.35
2022-10-16T00:52:57.208Z,14.27
2022-10-16T00:55:02.338Z,14.24
2022-10-16T00:57:06.577Z,14.26
2022-10-16T00:59:14.943Z,14.24
2022-10-16T01:01:16.536Z,14.29
2022-10-16T01:03:27.992Z,14.31
2022-10-16T01:05:38.610Z,14.23
2022-10-16T01:07:48.550Z,14.19
2022-10-16T01:10:03.367Z,14.22
2022-10-16T01:12:10.869Z,14.16
2022-10-16T01:14:20.760Z,14.09
2022-10-16T01:16:30.537Z,14.10
2022-10-16T01:18:38.408Z,14.05
2022-10-16T01:20:45.081Z,14.04
2022-10-16T01:22:59.183Z,13.99
2022-10-16T01:25:09.980Z,13.94
2022-10-16T01:27:15.734Z,13.92
2022-10-16T01:29:22.069Z,13.92
2022-10-16T01:31:26.784Z,13.86
2022-10-16T01:33:35.225Z,13.88
2022-10-16T01:35:42.695Z,13.86
2022-10-16T01:37:52.132Z,13.86
2022-10-16T01:39:59.375Z,13.85
2022-10-16T01:42:07.692Z,13.84
2022-10-16T01:44:16.201Z,13.79
2022-10-16T01:46:21.839Z,13.73
2022-10-16T01:48:24.316Z,13.73
2022-10-16T01:50:27.985Z,13.76
2022-10-16T01:52:30.532Z,13.75
2022-10-16T01:54:35.172Z,13.76
2022-10-16T01:56:39.712Z,13.78
2022-10-16T01:58:46.112Z,13.83
2022-10-16T02:00:49.264Z,13.81
2022-10-16T02:02:53.959Z,13.85
2022-10-16T02:04:59.198Z,13.89
2022-10-16T02:07:01.032Z,13.86
2022-10-16T02:09:02.582Z,13.88
2022-10-16T02:11:04.248Z,13.91
2022-10-16T02:13:09.698Z,13.86
2022-10-16T02:15:11.231Z,13.93
2022-10-16T02:17:17.301Z,13.93
2022-10-16T02:19:21.639Z,13.91
2022-10-16T02:21:27.109Z,13.92
2022-10-16T02:23:36.281Z,13.97
2022-10-16T02:25:42.750Z,13.96
2022-10-16T02:27:51.965Z,14.00
2022-10-16T02:29:56.850Z,13.96
2022-10-16T02:32:03.383Z,14.01
2022-10-16T02:34:08.433Z,14.00
2022-10-16T02:36:10.568Z,13.96
2022-10-16T02:38:13.390Z,13.89
2022-10-16T02:40:18.300Z,13.92
2022-10-16T02:42:21.911Z,13.92
2022-10-16T02:44:23.466Z,13.91
2022-10-16T02:46:25.019Z,13.95
2022-10-16T02:48:26.557Z,13.99
2022-10-16T02:50:29.605Z,13.99
2022-10-16T02:52:31.124Z,13.98
2022-10-16T02:54:32.934Z,13.94
2022-10-16T02:56:34.408Z,13.96
2022-10-16T02:58:35.922Z,13.93
2022-10-16T03:00:37.530Z,13.96
2022-10-16T03:02:39.162Z,13.96
2022-10-16T03:04:40.671Z,13.95
2022-10-16T03:06:43.605Z,13.96
2022-10-16T03:08:45.152Z,13.90
2022-10-16T03:10:46.740Z,13.89
2022-10-16T03:12:48.363Z,13.86
2022-10-16T03:14:52.313Z,13.81
2022-10-16T03:16:53.796Z,13.85
2022-10-16T03:18:55.289Z,13.83
2022-10-16T03:20:56.819Z,13.81
2022-10-16T03:22:59.683Z,13.82
2022-10-16T03:25:01.321Z,13.84
2022-10-16T03:27:03.073Z,13.81
2022-10-16T03:29:05.040Z,13.81
2022-10-16T03:31:06.735Z,13.84
2022-10-16T03:33:08.275Z,13.84
2022-10-16T03:35:09.860Z,13.80
2022-10-16T03:37:11.589Z,13.76
2022-10-16T03:39:14.535Z,13.72
2022-10-16T03:41:16.073Z,13.76
2022-10-16T03:43:17.600Z,13.72
2022-10-16T03:45:19.122Z,13.66
2022-10-16T03:47:20.634Z,13.61
2022-10-16T03:49:22.195Z,13.57
2022-10-16T03:51:23.772Z,13.58
2022-10-16T03:53:25.909Z,13.57
2022-10-16T03:55:28.944Z,13.60
2022-10-16T03:57:30.486Z,13.55
2022-10-16T03:59:32.032Z,13.54
2022-10-16T04:01:34.078Z,13.49
2022-10-16T04:03:35.696Z,13.49
2022-10-16T04:05:37.200Z,13.49
2022-10-16T04:07:38.743Z,13.49
2022-10-16T04:09:40.340Z,13.52
2022-10-16T04:11:43.473Z,13.52
2022-10-16T04:13:45.200Z,13.51
2022-10-16T04:15:47.053Z,13.53
2022-10-16T04:17:48.650Z,13.48
2022-10-16T04:19:50.210Z,13.49
2022-10-16T04:21:51.719Z,13.42
2022-10-16T04:23:53.309Z,13.45
2022-10-16T04:25:54.875Z,13.50
2022-10-16T04:27:57.778Z,13.47
2022-10-16T04:29:59.312Z,13.48
2022-10-16T04:32:00.998Z,13.45
2022-10-16T04:34:02.483Z,13.46
2022-10-16T04:36:05.069Z,13.46
2022-10-16T04:38:06.609Z,13.46
2022-10-16T04:40:08.733Z,13.42
2022-10-16T04:42:10.477Z,13.41
2022-10-16T04:44:13.434Z,13.43
2022-10-16T04:46:14.948Z,13.35
2022-10-16T04:48:16.425Z,13.35
2022-10-16T04:50:17.986Z,13.35
2022-10-16T04:52:19.468Z,13.33
2022-10-16T04:54:20.995Z,13.34
2022-10-16T04:56:22.520Z,13.34
2022-10-16T04:58:24.224Z,13.31
2022-10-16T05:00:27.366Z,13.22
2022-10-16T05:02:28.969Z,13.23
2022-10-16T05:04:30.508Z,13.23
2022-10-16T05:06:32.056Z,13.19
2022-10-16T05:08:34.052Z,13.15
2022-10-16T05:10:35.539Z,13.08
2022-10-16T05:12:37.030Z,13.02
2022-10-16T05:14:38.573Z,13.10
2022-10-16T05:16:41.447Z,13.14
2022-10-16T05:18:42.953Z,13.11
2022-10-16T05:20:44.550Z,13.09
2022-10-16T05:22:46.119Z,13.08
2022-10-16T05:24:48.287Z,13.09
2022-10-16T05:26:50.558Z,13.03
2022-10-16T05:28:52.086Z,13.00
2022-10-16T05:30:53.618Z,13.00
2022-10-16T05:32:56.627Z,13.06
2022-10-16T05:34:58.188Z,13.00
2022-10-16T05:36:59.774Z,12.93
2022-10-16T05:39:01.339Z,13.03
2022-10-16T05:41:03.597Z,12.94
2022-10-16T05:43:05.140Z,12.98
2022-10-16T05:45:08.125Z,13.02
2022-10-16T05:47:09.650Z,13.05
2022-10-16T05:49:12.470Z,13.05
2022-10-16T05:51:15.416Z,13.12
2022-10-16T05:53:16.989Z,13.19
2022-10-16T05:55:18.787Z,13.21
2022-10-16T05:57:20.323Z,13.16
2022-10-16T05:59:21.806Z,13.16
2022-10-16T06:01:23.326Z,13.19
2022-10-16T06:03:25.304Z,13.21
2022-10-16T06:05:28.516Z,13.19
2022-10-16T06:07:30.021Z,13.18
2022-10-16T06:09:31.643Z,13.22
2022-10-16T06:11:34.159Z,13.26
2022-10-16T06:13:36.060Z,13.38
2022-10-16T06:15:38.632Z,13.42
2022-10-16T06:17:40.124Z,13.46
2022-10-16T06:19:42.390Z,13.52
2022-10-16T06:21:45.368Z,13.56
2022-10-16T06:23:47.761Z,13.61
2022-10-16T06:25:49.391Z,13.67
2022-10-16T06:27:51.032Z,13.76
2022-10-16T06:29:52.515Z,13.86
2022-10-16T06:31:53.987Z,13.84
2022-10-16T06:33:55.947Z,13.84
2022-10-16T06:36:01.493Z,13.90
2022-10-16T06:38:04.413Z,13.92
2022-10-16T06:40:06.974Z,14.05
2022-10-16T06:42:08.475Z,14.01
2022-10-16T06:44:10.040Z,14.00
2022-10-16T06:46:12.907Z,14.01
2022-10-16T06:48:14.376Z,13.98
2022-10-16T06:50:15.951Z,14.11
2022-10-16T06:52:17.490Z,14.16
2022-10-16T06:54:20.396Z,14.15
2022-10-16T06:56:23.658Z,14.18
2022-10-16T06:58:25.187Z,14.32
2022-10-16T07:00:26.661Z,14.24
2022-10-16T07:02:28.354Z,14.30
2022-10-16T07:04:30.225Z,14.24
2022-10-16T07:06:35.149Z,14.26
2022-10-16T07:08:38.787Z,14.41
2022-10-16T07:10:41.820Z,14.52
2022-10-16T07:12:43.515Z,14.75
2022-10-16T07:14:45.144Z,14.95
2022-10-16T07:16:47.426Z,15.07
2022-10-16T07:18:48.893Z,15.21
2022-10-16T07:20:50.373Z,15.32
2022-10-16T07:22:51.906Z,15.38
2022-10-16T07:24:55.622Z,15.60
2022-10-16T07:26:58.451Z,15.77
2022-10-16T07:29:00.534Z,15.92
2022-10-16T07:31:02.922Z,16.09
2022-10-16T07:33:04.672Z,16.24
2022-10-16T07:35:07.498Z,16.27
2022-10-16T07:37:09.073Z,16.31
2022-10-16T07:39:10.603Z,16.43
2022-10-16T07:41:13.982Z,16.43
2022-10-16T07:43:16.816Z,16.26
2022-10-16T07:45:18.277Z,16.20
2022-10-16T07:47:19.870Z,16.09
2022-10-16T07:49:21.381Z,16.12
2022-10-16T07:51:24.852Z,16.07
2022-10-16T07:53:27.155Z,16.10
2022-10-16T07:55:28.667Z,16.05
2022-10-16T07:57:30.173Z,15.94
2022-10-16T07:59:33.056Z,16.02
2022-10-16T08:01:34.602Z,16.11
2022-10-16T08:03:36.678Z,15.94
2022-10-16T08:05:38.240Z,15.94
2022-10-16T08:07:39.875Z,16.03
2022-10-16T08:09:41.386Z,16.03
2022-10-16T08:11:44.445Z,16.08
2022-10-16T08:13:46.036Z,16.04
2022-10-16T08:15:48.955Z,15.99
2022-10-16T08:17:58.766Z,15.99
2022-10-16T08:20:00.604Z,15.94
2022-10-16T08:22:02.625Z,16.06
2022-10-16T08:24:04.460Z,16.11
2022-10-16T08:26:07.921Z,16.25
2022-10-16T08:28:11.611Z,16.35
2022-10-16T08:30:14.043Z,16.58
2022-10-16T08:32:17.118Z,16.67
2022-10-16T08:34:18.711Z,16.78
2022-10-16T08:36:20.733Z,17.00
2022-10-16T08:38:22.640Z,16.97
2022-10-16T08:40:26.542Z,16.94
2022-10-16T08:42:44.267Z,16.97
2022-10-16T08:45:07.822Z,17.01
2022-10-16T08:47:18.390Z,17.00
2022-10-16T08:49:21.630Z,16.88
2022-10-16T08:51:25.927Z,16.97
2022-10-16T08:53:37.390Z,16.98
2022-10-16T08:55:43.532Z,16.87
2022-10-16T08:57:47.385Z,16.78
2022-10-16T08:59:48.965Z,16.81
2022-10-16T09:01:52.699Z,16.70
2022-10-16T09:04:08.417Z,16.75
2022-10-16T09:06:30.727Z,16.68
2022-10-16T09:08:43.741Z,16.75
2022-10-16T09:10:55.285Z,16.98
2022-10-16T09:13:03.585Z,17.31
2022-10-16T09:15:17.731Z,17.48
2022-10-16T09:17:30.919Z,17.54
2022-10-16T09:19:37.724Z,17.45
2022-10-16T09:21:43.192Z,17.37
2022-10-16T09:23:47.120Z,17.21
2022-10-16T09:25:50.421Z,17.16
2022-10-16T09:27:54.037Z,17.14
2022-10-16T09:29:59.639Z,17.16
2022-10-16T09:32:12.768Z,17.09
2022-10-16T09:34:31.098Z,17.02
2022-10-16T09:36:40.313Z,17.00
2022-10-16T09:38:43.224Z,16.97
2022-10-16T09:40:44.780Z,17.00
2022-10-16T09:42:46.350Z,16.93
2022-10-16T09:44:49.394Z,17.00
2022-10-16T09:47:04.168Z,17.27
2022-10-16T09:49:19.546Z,17.36
2022-10-16T09:51:24.253Z,17.41
2022-10-16T09:53:27.935Z,17.41
2022-10-16T09:55:30.801Z,17.32
2022-10-16T09:57:32.309Z,17.25
2022-10-16T09:59:34.595Z,17.23
2022-10-16T10:01:39.506Z,17.21
2022-10-16T10:03:42.544Z,17.20
2022-10-16T10:05:49.228Z,17.26
2022-10-16T10:07:57.070Z,17.35
2022-10-16T10:09:58.606Z,17.40
2022-10-16T10:14:20.819Z,17.57
2022-10-16T10:16:24.833Z,17.60
2022-10-16T10:18:26.332Z,17.69
2022-10-16T10:20:29.853Z,17.66
2022-10-16T10:22:39.957Z,17.68
2022-10-16T10:24:41.473Z,17.74
2022-10-16T10:26:50.072Z,17.70
2022-10-16T10:29:03.216Z,17.74
2022-10-16T10:31:10.293Z,17.74
2022-10-16T10:33:25.687Z,17.78
2022-10-16T10:35:37.703Z,17.86
2022-10-16T10:37:55.737Z,17.93
2022-10-16T10:40:03.719Z,18.07
2022-10-16T10:42:20.608Z,18.11
2022-10-16T10:44:31.495Z,18.04
2022-10-16T10:46:36.150Z,18.01
2022-10-16T10:49:00.557Z,18.08
2022-10-16T10:51:09.739Z,18.15
2022-10-16T10:53:22.605Z,18.32
2022-10-16T10:55:32.112Z,18.42
2022-10-16T10:57:43.699Z,18.63
2022-10-16T11:00:07.926Z,18.60
2022-10-16T11:02:18.317Z,18.66
2022-10-16T11:04:53.974Z,18.75
2022-10-16T11:07:00.810Z,18.77
2022-10-16T11:09:11.608Z,18.67
2022-10-16T11:11:20.642Z,18.71
2022-10-16T11:13:31.314Z,18.98
2022-10-16T11:15:39.837Z,19.21
2022-10-16T11:17:45.837Z,19.31
2022-10-16T11:19:52.241Z,19.34
2022-10-16T11:22:00.966Z,19.31
2022-10-16T11:24:10.915Z,19.45
2022-10-16T11:26:17.320Z,19.45
2022-10-16T11:28:26.606Z,19.50
2022-10-16T11:30:34.695Z,19.40
2022-10-16T11:32:49.344Z,19.38
2022-10-16T11:34:56.767Z,19.23
2022-10-16T11:37:04.532Z,19.05
2022-10-16T11:39:19.249Z,19.03
2022-10-16T11:41:27.278Z,18.92
2022-10-16T11:43:33.513Z,18.87
2022-10-16T11:45:40.942Z,18.85
2022-10-16T11:47:58.798Z,18.88
2022-10-16T11:50:04.587Z,18.92
2022-10-16T11:54:27.377Z,19.02
2022-10-16T11:56:33.596Z,18.86
2022-10-16T11:58:39.278Z,18.85
2022-10-16T12:00:46.788Z,18.80
2022-10-16T12:02:57.171Z,18.77
2022-10-16T12:05:07.994Z,18.80
2022-10-16T12:07:12.943Z,18.89
2022-10-16T12:09:24.223Z,19.00
2022-10-16T12:11:34.396Z,18.93
2022-10-16T12:13:38.056Z,18.84
2022-10-16T12:15:58.044Z,18.73
2022-10-16T12:18:02.136Z,18.62
2022-10-16T12:20:22.434Z,18.56
2022-10-16T12:22:24.008Z,18.55
2022-10-16T12:24:33.908Z,18.53
2022-10-16T12:26:40.068Z,18.57
2022-10-16T12:28:41.971Z,18.68
2022-10-16T12:30:53.313Z,18.55
2022-10-16T12:32:56.386Z,18.55
2022-10-16T12:35:00.327Z,18.64
2022-10-16T12:37:12.238Z,18.76
2022-10-16T12:39:22.463Z,18.76
2022-10-16T12:41:29.315Z,18.61
2022-10-16T12:43:40.532Z,18.51
2022-10-16T12:45:42.084Z,18.46
2022-10-16T12:47:51.011Z,18.48
2022-10-16T12:49:54.031Z,18.45
2022-10-16T12:51:57.549Z,18.39
2022-10-16T12:54:00.145Z,18.27
2022-10-16T12:56:10.677Z,18.22
2022-10-16T12:58:28.885Z,18.19
2022-10-16T13:00:42.461Z,18.22
2022-10-16T13:02:59.298Z,18.24
2022-10-16T13:05:17.838Z,18.20
2022-10-16T13:07:34.814Z,18.17
2022-10-16T13:09:49.931Z,18.17
2022-10-16T13:12:12.750Z,18.14
2022-10-16T13:14:41.152Z,18.30
2022-10-16T13:16:52.097Z,18.37
2022-10-16T13:19:04.461Z,18.30
2022-10-16T13:21:18.877Z,18.27
2022-10-16T13:23:27.312Z,18.28
2022-10-16T13:25:42.098Z,18.30
2022-10-16T13:27:51.770Z,18.32
2022-10-16T13:30:01.250Z,18.38
2022-10-16T13:32:10.332Z,18.45
2022-10-16T13:34:15.709Z,18.57
2022-10-16T13:36:21.960Z,18.65
2022-10-16T13:38:27.147Z,18.86
2022-10-16T13:40:28.656Z,18.95
2022-10-16T13:42:30.583Z,19.06
2022-10-16T13:44:40.231Z,19.23
2022-10-16T13:46:41.876Z,19.27
2022-10-16T13:48:44.394Z,19.29
2022-10-16T13:50:46.197Z,19.32
2022-10-16T13:52:47.703Z,19.27
2022-10-16T13:54:50.662Z,19.24
2022-10-16T13:57:03.355Z,19.28
2022-10-16T13:59:24.943Z,19.27
2022-10-16T14:01:32.463Z,19.25
2022-10-16T14:03:35.595Z,19.20
2022-10-16T14:05:49.087Z,19.29
2022-10-16T14:07:52.522Z,19.24
2022-10-16T14:09:56.322Z,19.20
2022-10-16T14:12:00.995Z,19.09
2022-10-16T14:14:03.505Z,18.98
2022-10-16T14:16:09.801Z,18.91
2022-10-16T14:18:20.980Z,18.93
2022-10-16T14:20:26.892Z,18.87
2022-10-16T14:22:34.230Z,18.84
2022-10-16T14:24:36.439Z,18.80
2022-10-16T14:26:49.652Z,18.78
2022-10-16T14:29:10.483Z,18.71
2022-10-16T14:31:33.343Z,18.68
2022-10-16T14:33:35.235Z,18.68
2022-10-16T14:35:39.533Z,18.75
2022-10-16T14:37:41.080Z,18.73
2022-10-16T14:39:42.712Z,18.71
2022-10-16T14:41:48.246Z,18.71
2022-10-16T14:43:53.753Z,18.64
2022-10-16T14:45:57.867Z,18.67
2022-10-16T14:48:02.568Z,18.66
2022-10-16T14:50:05.704Z,18.68
2022-10-16T14:52:11.817Z,18.68
2022-10-16T14:54:14.086Z,18.63
2022-10-16T14:56:17.974Z,18.61
2022-10-16T14:58:22.911Z,18.59
2022-10-16T15:00:25.373Z,18.51
2022-10-16T15:02:30.624Z,18.49
2022-10-16T15:04:32.122Z,18.47
2022-10-16T15:06:33.645Z,18.42
2022-10-16T15:08:35.161Z,18.41
2022-10-16T15:10:40.503Z,18.36
2022-10-16T15:12:42.028Z,18.26
2022-10-16T15:14:45.000Z,18.22
2022-10-16T15:16:46.655Z,18.26
2022-10-16T15:18:48.223Z,18.23
2022-10-16T15:20:50.981Z,18.24
2022-10-16T15:22:52.571Z,18.25
2022-10-16T15:24:54.140Z,18.22
2022-10-16T15:26:55.799Z,18.10
2022-10-16T15:28:57.902Z,18.02
2022-10-16T15:31:00.781Z,17.85
2022-10-16T15:33:02.725Z,17.92
2022-10-16T15:35:05.216Z,17.85
2022-10-16T15:37:06.693Z,17.73
2022-10-16T15:39:14.556Z,17.61
2022-10-16T15:41:18.098Z,17.50
2022-10-16T15:43:19.659Z,17.46
2022-10-16T15:45:21.336Z,17.37
2022-10-16T15:47:24.324Z,17.29
2022-10-16T15:49:26.071Z,17.23
2022-10-16T15:51:29.141Z,17.28
2022-10-16T15:53:30.656Z,17.45
2022-10-16T15:55:32.202Z,17.36
2022-10-16T15:57:33.746Z,17.47
2022-10-16T15:59:35.365Z,17.53
2022-10-16T16:01:37.200Z,17.33
2022-10-16T16:03:40.742Z,17.34
2022-10-16T16:05:46.695Z,17.12
2022-10-16T16:07:50.838Z,16.97
2022-10-16T16:09:52.376Z,16.84
2022-10-16T16:11:53.931Z,16.71
2022-10-16T16:13:55.571Z,16.62
2022-10-16T16:15:57.270Z,16.57
2022-10-16T16:17:58.786Z,16.44
2022-10-16T16:20:03.893Z,16.29
2022-10-16T16:22:09.414Z,16.21
2022-10-16T16:24:17.083Z,16.08
2022-10-16T16:26:24.508Z,16.01
2022-10-16T16:28:26.379Z,15.93
2022-10-16T16:30:30.255Z,15.86
2022-10-16T16:32:31.828Z,15.82
2022-10-16T16:34:33.508Z,15.66
2022-10-16T16:36:36.951Z,15.56
2022-10-16T16:38:38.499Z,15.52
2022-10-16T16:40:40.051Z,15.46
2022-10-16T16:42:41.569Z,15.42
2022-10-16T16:44:43.090Z,15.33
2022-10-16T16:46:45.288Z,15.29
2022-10-16T16:48:47.401Z,15.26
2022-10-16T16:50:48.905Z,15.17
2022-10-16T16:52:51.803Z,15.07
2022-10-16T16:54:53.482Z,15.00
2022-10-16T16:56:54.967Z,14.95
2022-10-16T16:58:57.991Z,14.91
2022-10-16T17:01:18.837Z,14.86
2022-10-16T17:03:21.474Z,14.82
2022-10-16T17:05:23.010Z,14.78
2022-10-16T17:07:24.538Z,14.70
2022-10-16T17:09:27.548Z,14.74
2022-10-16T17:11:32.491Z,14.71
2022-10-16T17:13:35.655Z,14.65
2022-10-16T17:15:37.121Z,14.63
2022-10-16T17:17:38.762Z,14.58
2022-10-16T17:19:40.248Z,14.49
2022-10-16T17:21:41.972Z,14.50
2022-10-16T17:23:43.625Z,14.45
2022-10-16T17:25:47.025Z,14.35
2022-10-16T17:27:48.627Z,14.34
2022-10-16T17:29:51.593Z,14.37
2022-10-16T17:31:53.122Z,14.30
2022-10-16T17:33:55.016Z,14.31
2022-10-16T17:36:00.126Z,14.24
2022-10-16T17:38:01.588Z,14.20
2022-10-16T17:40:03.423Z,14.08
2022-10-16T17:42:06.329Z,14.12
2022-10-16T17:44:07.954Z,14.10
2022-10-16T17:46:10.732Z,14.10
2022-10-16T17:48:12.246Z,14.02
2022-10-16T17:50:16.674Z,14.00
2022-10-16T17:52:18.173Z,13.92
2022-10-16T17:54:20.439Z,13.98
2022-10-16T17:56:23.336Z,13.98
2022-10-16T17:58:26.262Z,13.88
2022-10-16T18:00:28.817Z,13.83
2022-10-16T18:02:30.715Z,13.70
2022-10-16T18:04:32.232Z,13.67
2022-10-16T18:06:34.580Z,13.58
2022-10-16T18:08:36.095Z,13.58
2022-10-16T18:10:44.834Z,13.49
2022-10-16T18:12:46.431Z,13.45
2022-10-16T18:14:49.311Z,13.41
2022-10-16T18:18:52.492Z,13.38
2022-10-16T18:20:56.959Z,13.34
2022-10-16T18:22:58.431Z,13.35
2022-10-16T18:25:00.015Z,13.33
2022-10-16T18:27:01.718Z,13.40
2022-10-16T18:29:04.116Z,13.44
2022-10-16T18:31:09.263Z,13.43
2022-10-16T18:33:10.824Z,13.41
2022-10-16T18:37:14.812Z,13.39
2022-10-16T18:39:16.357Z,13.31
2022-10-16T18:41:18.597Z,13.19
2022-10-16T18:43:20.110Z,13.25
2022-10-16T18:45:21.813Z,13.22
2022-10-16T18:47:24.934Z,13.27
2022-10-16T18:49:26.998Z,13.19
2022-10-16T18:51:30.001Z,13.21
2022-10-16T18:53:31.576Z,13.20
2022-10-16T18:55:33.201Z,13.20
2022-10-16T18:57:34.693Z,13.19
2022-10-16T18:59:36.221Z,13.09
2022-10-16T19:01:38.192Z,13.00
2022-10-16T19:03:41.521Z,12.91
2022-10-16T19:05:43.222Z,12.92
2022-10-16T19:07:47.695Z,12.95
2022-10-16T19:09:49.421Z,13.02
2022-10-16T19:13:56.347Z,13.02
2022-10-16T19:15:58.742Z,12.96
2022-10-16T19:18:05.357Z,12.98
2022-10-16T19:20:09.274Z,12.95
2022-10-16T19:22:10.766Z,12.92
2022-10-16T19:24:14.779Z,12.92
2022-10-16T19:26:17.755Z,12.89
2022-10-16T19:28:19.210Z,12.87
2022-10-16T19:30:21.339Z,12.86
2022-10-16T19:32:22.854Z,12.86
2022-10-16T19:34:24.435Z,12.88
2022-10-16T19:36:29.426Z,12.90
2022-10-16T19:38:30.970Z,12.90
2022-10-16T19:40:32.597Z,12.97
2022-10-16T19:42:34.576Z,13.05
2022-10-16T19:44:36.176Z,13.10
2022-10-16T19:46:38.147Z,13.15
2022-10-16T19:48:40.267Z,13.05
2022-10-16T19:50:45.672Z,12.98
2022-10-16T19:52:48.516Z,13.03
2022-10-16T19:54:50.199Z,13.03
2022-10-16T19:56:51.719Z,13.07
2022-10-16T19:58:55.159Z,13.16
2022-10-16T20:00:58.268Z,13.11
2022-10-16T20:02:59.976Z,13.07
2022-10-16T20:05:01.982Z,12.99
2022-10-16T20:07:03.599Z,12.87
2022-10-16T20:09:06.901Z,12.90
2022-10-16T20:11:14.226Z,12.94
2022-10-16T20:13:15.759Z,12.86
2022-10-16T20:15:17.539Z,12.85
2022-10-16T20:17:19.096Z,12.82
2022-10-16T20:19:20.580Z,12.74
2022-10-16T20:21:24.621Z,12.73
2022-10-16T20:23:26.261Z,12.68
2022-10-16T20:25:29.320Z,12.71
2022-10-16T20:27:31.044Z,12.70
2022-10-16T20:29:32.581Z,12.69
2022-10-16T20:31:34.981Z,12.75
2022-10-16T20:33:37.103Z,12.75
2022-10-16T20:35:40.219Z,12.78
2022-10-16T20:37:41.846Z,12.75
2022-10-16T20:39:43.675Z,12.70
2022-10-16T20:41:46.520Z,12.67
2022-10-16T20:43:49.931Z,12.64
2022-10-16T20:46:00.348Z,12.61
2022-10-16T20:48:02.037Z,12.61
2022-10-16T20:50:04.082Z,12.55
2022-10-16T20:52:05.763Z,12.60
2022-10-16T20:54:07.844Z,12.63
2022-10-16T20:56:09.404Z,12.64
2022-10-16T20:58:12.581Z,12.64
2022-10-16T21:00:15.100Z,12.61
2022-10-16T21:02:16.734Z,12.67
2022-10-16T21:04:18.404Z,12.70
2022-10-16T21:06:20.516Z,12.71
2022-10-16T21:08:22.009Z,12.70
2022-10-16T21:10:23.860Z,12.70
2022-10-16T21:12:27.026Z,12.68
2022-10-16T21:14:30.116Z,12.69
2022-10-16T21:16:32.088Z,12.67
2022-10-16T21:18:33.915Z,12.70
2022-10-16T21:20:35.433Z,12.72
2022-10-16T21:22:37.441Z,12.77
2022-10-16T21:24:39.156Z,12.79
2022-10-16T21:26:40.588Z,12.78
2022-10-16T21:28:42.525Z,12.79
2022-10-16T21:30:45.543Z,12.84
2022-10-16T21:32:48.319Z,12.80
2022-10-16T21:34:50.070Z,12.73
2022-10-16T21:36:51.621Z,12.75
2022-10-16T21:38:53.448Z,12.72
2022-10-16T21:40:54.950Z,12.93
2022-10-16T21:42:56.524Z,12.93
2022-10-16T21:44:58.038Z,12.84
2022-10-16T21:47:01.219Z,12.81
2022-10-16T21:49:05.231Z,12.77
2022-10-16T21:51:06.724Z,12.79
2022-10-16T21:53:08.258Z,12.81
2022-10-16T21:55:10.225Z,12.79
2022-10-16T21:57:11.879Z,12.75
2022-10-16T21:59:14.078Z,12.77
2022-10-16T22:01:17.806Z,12.76
2022-10-16T22:03:20.809Z,12.73
2022-10-16T22:05:22.282Z,12.77
2022-10-16T22:07:23.764Z,12.76
2022-10-16T22:09:25.469Z,12.72
2022-10-16T22:11:29.861Z,12.75
2022-10-16T22:13:31.755Z,12.84
2022-10-16T22:15:33.297Z,12.91
2022-10-16T22:17:34.875Z,12.80
2022-10-16T22:19:37.904Z,12.70
2022-10-16T22:21:41.460Z,12.59
2022-10-16T22:23:43.045Z,12.57
2022-10-16T22:25:44.891Z,12.56
2022-10-16T22:27:46.954Z,12.56
2022-10-16T22:29:51.072Z,12.67
2022-10-16T22:31:53.120Z,12.95
2022-10-16T22:33:55.339Z,12.91
2022-10-16T22:36:00.522Z,13.02
2022-10-16T22:38:02.314Z,12.92
2022-10-16T22:40:04.199Z,12.78
2022-10-16T22:42:05.727Z,12.67
2022-10-16T22:44:11.521Z,12.64
2022-10-16T22:46:17.463Z,12.68
2022-10-16T22:48:19.227Z,12.70
2022-10-16T22:50:20.843Z,12.87
2022-10-16T22:52:23.724Z,12.96
2022-10-16T22:54:25.577Z,12.99
2022-10-16T22:56:27.585Z,12.93
2022-10-16T22:58:29.652Z,12.90
2022-10-16T23:00:31.324Z,12.81
2022-10-16T23:02:32.832Z,12.77
2022-10-16T23:04:34.467Z,12.76
2022-10-16T23:06:36.001Z,12.75
2022-10-16T23:08:39.041Z,12.73
2022-10-16T23:10:42.307Z,12.89
2022-10-16T23:12:43.979Z,12.98
2022-10-16T23:14:45.611Z,12.93
2022-10-16T23:16:47.333Z,12.89
2022-10-16T23:18:49.813Z,12.96
2022-10-16T23:20:51.307Z,12.90
2022-10-16T23:22:52.809Z,12.85
2022-10-16T23:24:55.713Z,12.83
2022-10-16T23:26:57.216Z,12.81
2022-10-16T23:28:59.129Z,12.89
2022-10-16T23:31:03.048Z,12.83
2022-10-16T23:33:04.586Z,12.85
2022-10-16T23:35:06.403Z,12.77
2022-10-16T23:37:07.970Z,12.88
2022-10-16T23:39:09.651Z,12.81
2022-10-16T23:41:13.770Z,12.82
2022-10-16T23:43:15.649Z,12.84
2022-10-16T23:45:17.262Z,12.96
2022-10-16T23:47:18.817Z,13.00
2022-10-16T23:49:20.527Z,13.00
2022-10-16T23:51:22.413Z,12.96
2022-10-16T23:53:24.789Z,13.00
2022-10-16T23:55:26.550Z,13.07
2022-10-16T23:57:29.654Z,12.97
2022-10-16T23:59:31.512Z,12.96
